sensor_id;sensor_type;location;lat;lon;timestamp;pressure;altitude;pressure_sealevel;temperature;humidity
43364;BME280;40636;52.424;-1.948;2022-09-17T00:01:28;100643.16;;;6.23;96.31
43364;BME280;40636;52.424;-1.948;2022-09-17T00:03:57;100633.88;;;6.17;97.65
43364;BME280;40636;52.424;-1.948;2022-09-17T00:06:25;100642.94;;;6.18;97.33
43364;BME280;40636;52.424;-1.948;2022-09-17T00:08:53;100635.56;;;6.12;97.43
43364;BME280;40636;52.424;-1.948;2022-09-17T00:11:26;100638.06;;;6.06;97.30
43364;BME280;40636;52.424;-1.948;2022-09-17T00:13:54;100625.91;;;6.09;98.24
43364;BME280;40636;52.424;-1.948;2022-09-17T00:18:50;100639.28;;;5.97;98.29
43364;BME280;40636;52.424;-1.948;2022-09-17T00:21:18;100644.09;;;5.95;98.45
43364;BME280;40636;52.424;-1.948;2022-09-17T00:23:45;100640.06;;;5.91;98.50
43364;BME280;40636;52.424;-1.948;2022-09-17T00:26:12;100646.16;;;5.93;99.35
43364;BME280;40636;52.424;-1.948;2022-09-17T00:28:49;100639.63;;;5.88;98.40
43364;BME280;40636;52.424;-1.948;2022-09-17T00:31:16;100642.97;;;5.83;98.46
43364;BME280;40636;52.424;-1.948;2022-09-17T00:33:43;100633.78;;;5.91;99.79
43364;BME280;40636;52.424;-1.948;2022-09-17T00:36:10;100630.72;;;6.00;99.78
43364;BME280;40636;52.424;-1.948;2022-09-17T00:38:37;100642.22;;;6.02;99.20
43364;BME280;40636;52.424;-1.948;2022-09-17T00:41:05;100650.00;;;6.05;99.27
43364;BME280;40636;52.424;-1.948;2022-09-17T00:46:03;100657.38;;;6.18;98.54
43364;BME280;40636;52.424;-1.948;2022-09-17T00:48:32;100657.41;;;6.25;98.64
43364;BME280;40636;52.424;-1.948;2022-09-17T00:51:00;100655.06;;;6.22;98.66
43364;BME280;40636;52.424;-1.948;2022-09-17T00:53:27;100655.28;;;6.14;98.06
43364;BME280;40636;52.424;-1.948;2022-09-17T00:56:00;100658.41;;;6.17;99.17
43364;BME280;40636;52.424;-1.948;2022-09-17T00:58:29;100655.06;;;6.15;98.79
43364;BME280;40636;52.424;-1.948;2022-09-17T01:00:58;100644.38;;;6.14;99.09
43364;BME280;40636;52.424;-1.948;2022-09-17T01:03:25;100635.56;;;6.12;99.44
43364;BME280;40636;52.424;-1.948;2022-09-17T01:06:07;100632.78;;;5.98;97.87
43364;BME280;40636;52.424;-1.948;2022-09-17T01:11:52;100641.69;;;5.79;99.90
43364;BME280;40636;52.424;-1.948;2022-09-17T01:14:55;100647.13;;;5.79;100.00
43364;BME280;40636;52.424;-1.948;2022-09-17T01:28:28;100656.66;;;5.62;100.00
43364;BME280;40636;52.424;-1.948;2022-09-17T01:31:03;100652.88;;;5.56;100.00
43364;BME280;40636;52.424;-1.948;2022-09-17T01:44:11;100657.63;;;5.47;100.00
43364;BME280;40636;52.424;-1.948;2022-09-17T01:46:49;100656.59;;;5.48;100.00
43364;BME280;40636;52.424;-1.948;2022-09-17T01:49:17;100654.28;;;5.45;100.00
43364;BME280;40636;52.424;-1.948;2022-09-17T01:51:48;100652.81;;;5.49;100.00
43364;BME280;40636;52.424;-1.948;2022-09-17T01:54:56;100652.34;;;5.39;100.00
43364;BME280;40636;52.424;-1.948;2022-09-17T01:57:26;100649.38;;;5.34;100.00
43364;BME280;40636;52.424;-1.948;2022-09-17T02:00:00;100651.47;;;5.32;100.00
43364;BME280;40636;52.424;-1.948;2022-09-17T02:02:41;100651.06;;;5.35;100.00
43364;BME280;40636;52.424;-1.948;2022-09-17T02:30:09;100634.72;;;5.70;100.00
43364;BME280;40636;52.424;-1.948;2022-09-17T02:32:36;100645.44;;;5.78;100.00
43364;BME280;40636;52.424;-1.948;2022-09-17T02:35:03;100638.97;;;5.85;100.00
43364;BME280;40636;52.424;-1.948;2022-09-17T02:37:30;100640.78;;;6.06;100.00
43364;BME280;40636;52.424;-1.948;2022-09-17T02:39:56;100638.28;;;6.12;100.00
43364;BME280;40636;52.424;-1.948;2022-09-17T02:42:36;100639.78;;;6.21;100.00
43364;BME280;40636;52.424;-1.948;2022-09-17T02:50:17;100637.34;;;6.52;100.00
43364;BME280;40636;52.424;-1.948;2022-09-17T02:55:51;100643.25;;;6.89;100.00
43364;BME280;40636;52.424;-1.948;2022-09-17T03:10:57;100643.38;;;7.54;99.16
43364;BME280;40636;52.424;-1.948;2022-09-17T03:13:31;100649.47;;;7.62;100.00
43364;BME280;40636;52.424;-1.948;2022-09-17T03:15:58;100648.44;;;7.63;98.28
43364;BME280;40636;52.424;-1.948;2022-09-17T03:18:27;100650.06;;;7.71;96.60
43364;BME280;40636;52.424;-1.948;2022-09-17T03:20:54;100647.75;;;7.75;95.92
43364;BME280;40636;52.424;-1.948;2022-09-17T03:23:21;100646.88;;;7.81;95.14
43364;BME280;40636;52.424;-1.948;2022-09-17T03:25:48;100648.13;;;7.85;96.36
43364;BME280;40636;52.424;-1.948;2022-09-17T03:48:08;100640.16;;;7.83;95.37
43364;BME280;40636;52.424;-1.948;2022-09-17T03:50:34;100637.84;;;7.87;95.93
43364;BME280;40636;52.424;-1.948;2022-09-17T03:53:01;100635.72;;;7.89;94.76
43364;BME280;40636;52.424;-1.948;2022-09-17T03:55:28;100639.47;;;7.95;93.65
43364;BME280;40636;52.424;-1.948;2022-09-17T03:57:56;100633.41;;;7.93;95.01
43364;BME280;40636;52.424;-1.948;2022-09-17T04:00:23;100638.25;;;7.91;95.82
43364;BME280;40636;52.424;-1.948;2022-09-17T04:02:50;100644.97;;;7.88;95.59
43364;BME280;40636;52.424;-1.948;2022-09-17T04:05:17;100643.72;;;7.91;94.44
43364;BME280;40636;52.424;-1.948;2022-09-17T04:10:33;100635.28;;;7.92;95.34
43364;BME280;40636;52.424;-1.948;2022-09-17T04:13:00;100629.41;;;7.95;96.51
43364;BME280;40636;52.424;-1.948;2022-09-17T04:15:27;100634.00;;;7.95;95.18
43364;BME280;40636;52.424;-1.948;2022-09-17T04:17:55;100641.81;;;7.91;95.70
43364;BME280;40636;52.424;-1.948;2022-09-17T04:20:24;100641.41;;;7.87;97.12
43364;BME280;40636;52.424;-1.948;2022-09-17T04:22:51;100637.66;;;7.82;96.52
43364;BME280;40636;52.424;-1.948;2022-09-17T04:25:18;100640.19;;;7.77;97.11
43364;BME280;40636;52.424;-1.948;2022-09-17T04:27:45;100639.38;;;7.70;99.05
43364;BME280;40636;52.424;-1.948;2022-09-17T04:30:13;100641.91;;;7.58;98.02
43364;BME280;40636;52.424;-1.948;2022-09-17T04:32:42;100640.06;;;7.45;100.00
43364;BME280;40636;52.424;-1.948;2022-09-17T04:35:10;100632.28;;;7.35;100.00
43364;BME280;40636;52.424;-1.948;2022-09-17T04:37:36;100643.66;;;7.26;100.00
43364;BME280;40636;52.424;-1.948;2022-09-17T04:40:03;100648.50;;;7.24;99.86
43364;BME280;40636;52.424;-1.948;2022-09-17T04:42:33;100651.44;;;7.22;100.00
43364;BME280;40636;52.424;-1.948;2022-09-17T04:45:00;100636.53;;;7.18;100.00
43364;BME280;40636;52.424;-1.948;2022-09-17T04:47:27;100643.66;;;7.12;100.00
43364;BME280;40636;52.424;-1.948;2022-09-17T07:01:25;100674.69;;;7.45;100.00
43364;BME280;40636;52.424;-1.948;2022-09-17T09:19:48;100706.47;;;11.44;63.07
43364;BME280;40636;52.424;-1.948;2022-09-17T09:25:24;100715.56;;;11.56;60.54
43364;BME280;40636;52.424;-1.948;2022-09-17T09:34:11;100716.31;;;11.63;60.99
43364;BME280;40636;52.424;-1.948;2022-09-17T09:36:38;100712.00;;;11.67;60.49
43364;BME280;40636;52.424;-1.948;2022-09-17T09:39:22;100709.13;;;11.74;59.83
43364;BME280;40636;52.424;-1.948;2022-09-17T09:42:05;100706.16;;;11.87;60.07
43364;BME280;40636;52.424;-1.948;2022-09-17T09:44:36;100710.56;;;12.00;58.26
43364;BME280;40636;52.424;-1.948;2022-09-17T09:47:37;100697.28;;;12.09;57.52
43364;BME280;40636;52.424;-1.948;2022-09-17T10:43:36;100699.00;;;12.67;61.64
43364;BME280;40636;52.424;-1.948;2022-09-17T10:46:43;100697.19;;;12.73;61.60
43364;BME280;40636;52.424;-1.948;2022-09-17T10:52:05;100691.28;;;12.81;60.66
43364;BME280;40636;52.424;-1.948;2022-09-17T11:04:57;100683.69;;;12.88;59.02
43364;BME280;40636;52.424;-1.948;2022-09-17T11:08:06;100682.88;;;12.87;58.46
43364;BME280;40636;52.424;-1.948;2022-09-17T11:10:43;100684.03;;;12.91;58.70
43364;BME280;40636;52.424;-1.948;2022-09-17T11:13:21;100686.72;;;13.03;57.87
43364;BME280;40636;52.424;-1.948;2022-09-17T11:18:46;100682.16;;;13.09;57.81
43364;BME280;40636;52.424;-1.948;2022-09-17T11:21:42;100689.75;;;13.18;56.91
43364;BME280;40636;52.424;-1.948;2022-09-17T11:36:00;100656.53;;;13.25;56.50
43364;BME280;40636;52.424;-1.948;2022-09-17T11:38:42;100657.63;;;13.24;55.16
43364;BME280;40636;52.424;-1.948;2022-09-17T11:41:18;100655.84;;;13.35;55.49
43364;BME280;40636;52.424;-1.948;2022-09-17T11:46:21;100652.69;;;13.43;56.43
43364;BME280;40636;52.424;-1.948;2022-09-17T11:49:15;100634.63;;;13.52;56.59
43364;BME280;40636;52.424;-1.948;2022-09-17T11:52:14;100618.47;;;13.61;54.36
43364;BME280;40636;52.424;-1.948;2022-09-17T11:54:56;100624.91;;;13.66;54.56
43364;BME280;40636;52.424;-1.948;2022-09-17T11:57:27;100630.47;;;13.71;53.42
43364;BME280;40636;52.424;-1.948;2022-09-17T12:02:46;100638.78;;;13.93;53.07
43364;BME280;40636;52.424;-1.948;2022-09-17T12:05:18;100641.38;;;14.00;54.76
43364;BME280;40636;52.424;-1.948;2022-09-17T12:10:19;100630.50;;;14.15;53.10
43364;BME280;40636;52.424;-1.948;2022-09-17T12:13:17;100624.94;;;14.10;53.41
43364;BME280;40636;52.424;-1.948;2022-09-17T12:16:02;100632.63;;;14.08;52.99
43364;BME280;40636;52.424;-1.948;2022-09-17T14:50:36;100589.66;;;14.66;48.35
43364;BME280;40636;52.424;-1.948;2022-09-17T14:53:07;100587.47;;;14.68;49.42
43364;BME280;40636;52.424;-1.948;2022-09-17T14:55:40;100585.28;;;14.70;49.43
43364;BME280;40636;52.424;-1.948;2022-09-17T15:26:21;100577.25;;;15.01;48.85
43364;BME280;40636;52.424;-1.948;2022-09-17T15:29:43;100571.44;;;15.03;47.01
43364;BME280;40636;52.424;-1.948;2022-09-17T15:48:35;100572.44;;;14.54;49.85
43364;BME280;40636;52.424;-1.948;2022-09-17T15:51:11;100572.88;;;14.46;47.74
43364;BME280;40636;52.424;-1.948;2022-09-17T16:08:49;100561.09;;;14.29;49.01
43364;BME280;40636;52.424;-1.948;2022-09-17T16:11:19;100564.31;;;14.20;48.00
43364;BME280;40636;52.424;-1.948;2022-09-17T16:13:46;100554.50;;;14.35;48.55
43364;BME280;40636;52.424;-1.948;2022-09-17T16:16:21;100550.38;;;14.32;48.96
43364;BME280;40636;52.424;-1.948;2022-09-17T16:50:10;100565.59;;;13.86;53.22
43364;BME280;40636;52.424;-1.948;2022-09-17T17:10:06;100563.06;;;13.62;54.29
43364;BME280;40636;52.424;-1.948;2022-09-17T17:26:30;100570.84;;;13.27;57.23
43364;BME280;40636;52.424;-1.948;2022-09-17T17:29:20;100574.22;;;13.17;57.65
43364;BME280;40636;52.424;-1.948;2022-09-17T17:31:47;100577.25;;;13.15;57.91
43364;BME280;40636;52.424;-1.948;2022-09-17T17:37:07;100574.09;;;13.07;59.24
43364;BME280;40636;52.424;-1.948;2022-09-17T17:51:30;100580.03;;;12.82;62.37
43364;BME280;40636;52.424;-1.948;2022-09-17T17:54:28;100588.22;;;12.77;62.16
43364;BME280;40636;52.424;-1.948;2022-09-17T18:25:35;100575.78;;;12.29;63.84
43364;BME280;40636;52.424;-1.948;2022-09-17T20:05:25;100643.00;;;10.57;74.14
43364;BME280;40636;52.424;-1.948;2022-09-17T20:30:46;100646.13;;;10.30;75.32
43364;BME280;40636;52.424;-1.948;2022-09-17T21:03:35;100634.94;;;10.32;75.69
43364;BME280;40636;52.424;-1.948;2022-09-17T21:28:17;100617.78;;;10.18;78.55
43364;BME280;40636;52.424;-1.948;2022-09-17T21:30:47;100620.03;;;10.21;78.68
43364;BME280;40636;52.424;-1.948;2022-09-17T21:33:14;100620.88;;;10.22;79.03
43364;BME280;40636;52.424;-1.948;2022-09-17T21:35:48;100626.31;;;10.28;78.24
43364;BME280;40636;52.424;-1.948;2022-09-17T21:38:16;100624.56;;;10.34;77.38
43364;BME280;40636;52.424;-1.948;2022-09-17T21:41:00;100623.78;;;10.45;77.56
43364;BME280;40636;52.424;-1.948;2022-09-17T21:43:28;100622.06;;;10.44;77.74
43364;BME280;40636;52.424;-1.948;2022-09-17T21:46:07;100621.47;;;10.42;78.59
43364;BME280;40636;52.424;-1.948;2022-09-17T21:48:36;100616.75;;;10.49;77.79
43364;BME280;40636;52.424;-1.948;2022-09-17T21:51:09;100625.56;;;10.51;77.84
43364;BME280;40636;52.424;-1.948;2022-09-17T21:53:36;100621.75;;;10.52;78.62
43364;BME280;40636;52.424;-1.948;2022-09-17T22:44:19;100606.94;;;10.53;81.35
43364;BME280;40636;52.424;-1.948;2022-09-17T22:46:48;100603.28;;;10.59;80.45
43364;BME280;40636;52.424;-1.948;2022-09-17T22:49:16;100595.50;;;10.56;81.07
43364;BME280;40636;52.424;-1.948;2022-09-17T23:40:23;100549.47;;;10.58;81.65
43364;BME280;40636;52.424;-1.948;2022-09-17T23:44:11;100554.34;;;10.56;81.84
43364;BME280;40636;52.424;-1.948;2022-09-17T23:47:08;100550.41;;;10.52;82.91
